sensor_id;sensor_type;location;lat;lon;timestamp;P1;durP1;ratioP1;P2;durP2;ratioP2
17985;SDS011;9118;48.122;11.546;2022-12-10T00:00:48;60.17;;;26.90;;
17985;SDS011;9118;48.122;11.546;2022-12-10T00:03:16;55.10;;;25.00;;
17985;SDS011;9118;48.122;11.546;2022-12-10T00:05:43;52.77;;;24.70;;
17985;SDS011;9118;48.122;11.546;2022-12-10T00:08:10;53.13;;;24.53;;
17985;SDS011;9118;48.122;11.546;2022-12-10T00:10:39;49.53;;;24.87;;
17985;SDS011;9118;48.122;11.546;2022-12-10T00:13:09;57.40;;;25.80;;
17985;SDS011;9118;48.122;11.546;2022-12-10T00:15:36;57.43;;;25.57;;
17985;SDS011;9118;48.122;11.546;2022-12-10T00:18:03;58.30;;;25.83;;
17985;SDS011;9118;48.122;11.546;2022-12-10T00:20:31;56.17;;;26.27;;
17985;SDS011;9118;48.122;11.546;2022-12-10T00:22:58;59.30;;;26.53;;
17985;SDS011;9118;48.122;11.546;2022-12-10T00:25:26;59.77;;;27.93;;
17985;SDS011;9118;48.122;11.546;2022-12-10T00:27:54;57.40;;;26.47;;
17985;SDS011;9118;48.122;11.546;2022-12-10T00:30:23;56.73;;;25.13;;
17985;SDS011;9118;48.122;11.546;2022-12-10T00:32:51;57.33;;;26.33;;
17985;SDS011;9118;48.122;11.546;2022-12-10T00:35:19;57.33;;;25.67;;
17985;SDS011;9118;48.122;11.546;2022-12-10T00:37:46;58.20;;;25.27;;
17985;SDS011;9118;48.122;11.546;2022-12-10T00:40:13;55.03;;;25.63;;
17985;SDS011;9118;48.122;11.546;2022-12-10T00:42:40;53.93;;;25.93;;
17985;SDS011;9118;48.122;11.546;2022-12-10T00:45:08;52.60;;;25.83;;
17985;SDS011;9118;48.122;11.546;2022-12-10T00:47:37;53.43;;;25.57;;
17985;SDS011;9118;48.122;11.546;2022-12-10T00:50:05;55.93;;;25.63;;
17985;SDS011;9118;48.122;11.546;2022-12-10T00:52:33;52.30;;;24.53;;
17985;SDS011;9118;48.122;11.546;2022-12-10T00:55:02;59.50;;;26.07;;
17985;SDS011;9118;48.122;11.546;2022-12-10T00:57:32;57.30;;;26.47;;
17985;SDS011;9118;48.122;11.546;2022-12-10T01:00:02;51.30;;;24.80;;
17985;SDS011;9118;48.122;11.546;2022-12-10T01:02:30;53.60;;;26.63;;
17985;SDS011;9118;48.122;11.546;2022-12-10T01:04:59;57.33;;;24.83;;
17985;SDS011;9118;48.122;11.546;2022-12-10T01:07:27;54.00;;;25.37;;
17985;SDS011;9118;48.122;11.546;2022-12-10T01:09:54;56.23;;;25.73;;
17985;SDS011;9118;48.122;11.546;2022-12-10T01:12:22;58.07;;;24.87;;
17985;SDS011;9118;48.122;11.546;2022-12-10T01:14:52;52.60;;;24.43;;
17985;SDS011;9118;48.122;11.546;2022-12-10T01:17:19;56.50;;;26.47;;
17985;SDS011;9118;48.122;11.546;2022-12-10T01:19:47;55.07;;;24.90;;
17985;SDS011;9118;48.122;11.546;2022-12-10T01:22:16;57.60;;;25.60;;
17985;SDS011;9118;48.122;11.546;2022-12-10T01:24:44;59.00;;;26.07;;
17985;SDS011;9118;48.122;11.546;2022-12-10T01:27:11;56.57;;;25.63;;
17985;SDS011;9118;48.122;11.546;2022-12-10T01:29:38;54.60;;;25.97;;
17985;SDS011;9118;48.122;11.546;2022-12-10T01:32:13;50.03;;;24.17;;
17985;SDS011;9118;48.122;11.546;2022-12-10T01:34:49;55.67;;;24.87;;
17985;SDS011;9118;48.122;11.546;2022-12-10T01:37:17;54.83;;;25.17;;
17985;SDS011;9118;48.122;11.546;2022-12-10T01:39:45;52.47;;;24.97;;
17985;SDS011;9118;48.122;11.546;2022-12-10T01:42:14;52.43;;;24.63;;
17985;SDS011;9118;48.122;11.546;2022-12-10T01:44:59;50.33;;;24.10;;
17985;SDS011;9118;48.122;11.546;2022-12-10T01:47:29;51.53;;;24.37;;
17985;SDS011;9118;48.122;11.546;2022-12-10T01:49:58;50.30;;;23.30;;
17985;SDS011;9118;48.122;11.546;2022-12-10T01:52:28;50.33;;;24.37;;
17985;SDS011;9118;48.122;11.546;2022-12-10T01:54:55;47.90;;;22.97;;
17985;SDS011;9118;48.122;11.546;2022-12-10T01:57:23;49.87;;;23.17;;
17985;SDS011;9118;48.122;11.546;2022-12-10T01:59:53;47.70;;;22.17;;
17985;SDS011;9118;48.122;11.546;2022-12-10T02:02:26;40.50;;;20.83;;
17985;SDS011;9118;48.122;11.546;2022-12-10T02:05:04;43.33;;;22.23;;
17985;SDS011;9118;48.122;11.546;2022-12-10T02:07:50;48.47;;;23.27;;
17985;SDS011;9118;48.122;11.546;2022-12-10T02:10:30;43.77;;;22.07;;
17985;SDS011;9118;48.122;11.546;2022-12-10T02:13:08;48.17;;;23.07;;
17985;SDS011;9118;48.122;11.546;2022-12-10T02:15:40;45.40;;;22.37;;
17985;SDS011;9118;48.122;11.546;2022-12-10T02:18:12;51.40;;;24.10;;
17985;SDS011;9118;48.122;11.546;2022-12-10T02:20:43;47.33;;;23.50;;
17985;SDS011;9118;48.122;11.546;2022-12-10T02:23:19;54.03;;;25.90;;
17985;SDS011;9118;48.122;11.546;2022-12-10T02:25:53;45.67;;;22.07;;
17985;SDS011;9118;48.122;11.546;2022-12-10T02:28:29;49.00;;;23.53;;
17985;SDS011;9118;48.122;11.546;2022-12-10T02:31:02;51.90;;;23.60;;
17985;SDS011;9118;48.122;11.546;2022-12-10T02:33:31;46.93;;;22.33;;
17985;SDS011;9118;48.122;11.546;2022-12-10T02:35:59;46.53;;;22.90;;
17985;SDS011;9118;48.122;11.546;2022-12-10T02:38:29;51.40;;;23.20;;
17985;SDS011;9118;48.122;11.546;2022-12-10T02:40:59;48.67;;;23.83;;
17985;SDS011;9118;48.122;11.546;2022-12-10T02:43:31;48.00;;;23.17;;
17985;SDS011;9118;48.122;11.546;2022-12-10T02:46:02;45.50;;;22.63;;
17985;SDS011;9118;48.122;11.546;2022-12-10T02:48:31;50.70;;;24.40;;
17985;SDS011;9118;48.122;11.546;2022-12-10T02:51:01;50.33;;;23.77;;
17985;SDS011;9118;48.122;11.546;2022-12-10T02:53:29;48.43;;;24.03;;
17985;SDS011;9118;48.122;11.546;2022-12-10T02:56:02;49.63;;;22.53;;
17985;SDS011;9118;48.122;11.546;2022-12-10T02:58:39;47.10;;;23.63;;
17985;SDS011;9118;48.122;11.546;2022-12-10T03:01:19;50.90;;;23.70;;
17985;SDS011;9118;48.122;11.546;2022-12-10T03:03:52;48.50;;;23.37;;
17985;SDS011;9118;48.122;11.546;2022-12-10T03:06:30;45.83;;;22.07;;
17985;SDS011;9118;48.122;11.546;2022-12-10T03:09:03;43.37;;;21.57;;
17985;SDS011;9118;48.122;11.546;2022-12-10T03:11:34;46.53;;;23.50;;
17985;SDS011;9118;48.122;11.546;2022-12-10T03:14:04;47.10;;;22.70;;
17985;SDS011;9118;48.122;11.546;2022-12-10T03:16:40;43.03;;;22.73;;
17985;SDS011;9118;48.122;11.546;2022-12-10T03:19:12;45.70;;;22.67;;
17985;SDS011;9118;48.122;11.546;2022-12-10T03:21:42;46.23;;;22.40;;
17985;SDS011;9118;48.122;11.546;2022-12-10T03:24:13;39.40;;;20.23;;
17985;SDS011;9118;48.122;11.546;2022-12-10T03:26:41;43.23;;;21.77;;
17985;SDS011;9118;48.122;11.546;2022-12-10T03:29:12;43.30;;;21.53;;
17985;SDS011;9118;48.122;11.546;2022-12-10T03:31:48;39.53;;;20.00;;
17985;SDS011;9118;48.122;11.546;2022-12-10T03:34:17;38.60;;;19.50;;
17985;SDS011;9118;48.122;11.546;2022-12-10T03:36:44;33.63;;;18.13;;
17985;SDS011;9118;48.122;11.546;2022-12-10T03:39:12;35.13;;;19.10;;
17985;SDS011;9118;48.122;11.546;2022-12-10T03:41:42;36.03;;;19.20;;
17985;SDS011;9118;48.122;11.546;2022-12-10T03:44:13;39.00;;;19.67;;
17985;SDS011;9118;48.122;11.546;2022-12-10T03:46:54;37.93;;;19.50;;
17985;SDS011;9118;48.122;11.546;2022-12-10T03:49:21;38.10;;;20.30;;
17985;SDS011;9118;48.122;11.546;2022-12-10T03:51:49;39.93;;;20.60;;
17985;SDS011;9118;48.122;11.546;2022-12-10T03:54:16;36.93;;;19.30;;
17985;SDS011;9118;48.122;11.546;2022-12-10T03:56:45;35.33;;;19.50;;
17985;SDS011;9118;48.122;11.546;2022-12-10T03:59:12;39.63;;;20.13;;
17985;SDS011;9118;48.122;11.546;2022-12-10T04:01:41;40.00;;;19.60;;
17985;SDS011;9118;48.122;11.546;2022-12-10T04:04:10;34.63;;;18.33;;
17985;SDS011;9118;48.122;11.546;2022-12-10T04:06:38;39.10;;;19.63;;
17985;SDS011;9118;48.122;11.546;2022-12-10T04:09:06;35.47;;;18.43;;
17985;SDS011;9118;48.122;11.546;2022-12-10T04:11:38;38.23;;;19.60;;
17985;SDS011;9118;48.122;11.546;2022-12-10T04:14:12;39.77;;;20.70;;
17985;SDS011;9118;48.122;11.546;2022-12-10T04:16:57;37.97;;;19.43;;
17985;SDS011;9118;48.122;11.546;2022-12-10T04:19:26;36.17;;;19.33;;
17985;SDS011;9118;48.122;11.546;2022-12-10T04:21:53;38.60;;;19.43;;
17985;SDS011;9118;48.122;11.546;2022-12-10T04:24:37;46.37;;;18.70;;
17985;SDS011;9118;48.122;11.546;2022-12-10T04:27:22;36.53;;;18.67;;
17985;SDS011;9118;48.122;11.546;2022-12-10T04:29:52;34.73;;;18.60;;
17985;SDS011;9118;48.122;11.546;2022-12-10T04:32:19;37.20;;;18.93;;
17985;SDS011;9118;48.122;11.546;2022-12-10T04:34:49;36.57;;;18.57;;
17985;SDS011;9118;48.122;11.546;2022-12-10T04:37:17;38.23;;;19.40;;
17985;SDS011;9118;48.122;11.546;2022-12-10T04:39:45;38.37;;;18.37;;
17985;SDS011;9118;48.122;11.546;2022-12-10T04:42:12;35.53;;;18.77;;
17985;SDS011;9118;48.122;11.546;2022-12-10T04:44:40;35.70;;;19.03;;
17985;SDS011;9118;48.122;11.546;2022-12-10T04:47:08;34.70;;;18.43;;
17985;SDS011;9118;48.122;11.546;2022-12-10T04:49:36;35.07;;;18.57;;
17985;SDS011;9118;48.122;11.546;2022-12-10T04:52:06;35.03;;;18.63;;
17985;SDS011;9118;48.122;11.546;2022-12-10T04:54:36;31.73;;;17.13;;
17985;SDS011;9118;48.122;11.546;2022-12-10T04:57:04;29.10;;;16.40;;
17985;SDS011;9118;48.122;11.546;2022-12-10T04:59:32;33.40;;;17.20;;
17985;SDS011;9118;48.122;11.546;2022-12-10T05:01:59;34.07;;;18.13;;
17985;SDS011;9118;48.122;11.546;2022-12-10T05:04:34;35.63;;;18.00;;
17985;SDS011;9118;48.122;11.546;2022-12-10T05:07:02;35.50;;;17.83;;
17985;SDS011;9118;48.122;11.546;2022-12-10T05:09:34;33.17;;;17.77;;
17985;SDS011;9118;48.122;11.546;2022-12-10T05:12:02;34.47;;;17.57;;
17985;SDS011;9118;48.122;11.546;2022-12-10T05:14:30;33.20;;;18.63;;
17985;SDS011;9118;48.122;11.546;2022-12-10T05:16:59;34.83;;;18.70;;
17985;SDS011;9118;48.122;11.546;2022-12-10T05:19:26;38.43;;;19.07;;
17985;SDS011;9118;48.122;11.546;2022-12-10T05:21:53;37.60;;;18.77;;
17985;SDS011;9118;48.122;11.546;2022-12-10T05:24:40;38.33;;;19.57;;
17985;SDS011;9118;48.122;11.546;2022-12-10T05:27:07;39.87;;;19.23;;
17985;SDS011;9118;48.122;11.546;2022-12-10T05:29:34;34.77;;;19.30;;
17985;SDS011;9118;48.122;11.546;2022-12-10T05:32:06;34.70;;;19.67;;
17985;SDS011;9118;48.122;11.546;2022-12-10T05:34:33;36.80;;;19.83;;
17985;SDS011;9118;48.122;11.546;2022-12-10T05:37:02;38.23;;;19.00;;
17985;SDS011;9118;48.122;11.546;2022-12-10T05:39:29;39.27;;;20.67;;
17985;SDS011;9118;48.122;11.546;2022-12-10T05:41:59;36.83;;;19.13;;
17985;SDS011;9118;48.122;11.546;2022-12-10T05:44:27;38.77;;;19.87;;
17985;SDS011;9118;48.122;11.546;2022-12-10T05:46:54;40.27;;;21.47;;
17985;SDS011;9118;48.122;11.546;2022-12-10T05:49:22;35.33;;;19.40;;
17985;SDS011;9118;48.122;11.546;2022-12-10T05:51:49;35.13;;;20.07;;
17985;SDS011;9118;48.122;11.546;2022-12-10T05:54:16;34.70;;;19.07;;
17985;SDS011;9118;48.122;11.546;2022-12-10T05:56:44;34.70;;;18.93;;
17985;SDS011;9118;48.122;11.546;2022-12-10T05:59:13;39.17;;;19.63;;
17985;SDS011;9118;48.122;11.546;2022-12-10T06:01:41;37.83;;;19.47;;
17985;SDS011;9118;48.122;11.546;2022-12-10T06:04:12;33.23;;;18.43;;
17985;SDS011;9118;48.122;11.546;2022-12-10T06:06:40;33.47;;;19.37;;
17985;SDS011;9118;48.122;11.546;2022-12-10T06:09:10;32.50;;;18.27;;
17985;SDS011;9118;48.122;11.546;2022-12-10T06:11:40;32.03;;;18.27;;
17985;SDS011;9118;48.122;11.546;2022-12-10T06:14:10;34.53;;;18.50;;
17985;SDS011;9118;48.122;11.546;2022-12-10T06:16:39;35.90;;;18.60;;
17985;SDS011;9118;48.122;11.546;2022-12-10T06:19:10;35.13;;;19.43;;
17985;SDS011;9118;48.122;11.546;2022-12-10T06:21:38;36.00;;;19.83;;
17985;SDS011;9118;48.122;11.546;2022-12-10T06:24:07;34.93;;;19.37;;
17985;SDS011;9118;48.122;11.546;2022-12-10T06:26:34;33.43;;;18.33;;
17985;SDS011;9118;48.122;11.546;2022-12-10T06:29:03;37.77;;;21.57;;
17985;SDS011;9118;48.122;11.546;2022-12-10T06:31:31;35.77;;;19.03;;
17985;SDS011;9118;48.122;11.546;2022-12-10T06:34:01;34.70;;;19.50;;
17985;SDS011;9118;48.122;11.546;2022-12-10T06:36:28;36.37;;;20.40;;
17985;SDS011;9118;48.122;11.546;2022-12-10T06:38:57;36.23;;;20.83;;
17985;SDS011;9118;48.122;11.546;2022-12-10T06:41:24;37.07;;;21.23;;
17985;SDS011;9118;48.122;11.546;2022-12-10T06:43:51;39.53;;;20.80;;
17985;SDS011;9118;48.122;11.546;2022-12-10T06:46:19;35.27;;;20.00;;
17985;SDS011;9118;48.122;11.546;2022-12-10T06:48:47;36.60;;;20.00;;
17985;SDS011;9118;48.122;11.546;2022-12-10T06:51:17;36.80;;;20.23;;
17985;SDS011;9118;48.122;11.546;2022-12-10T06:53:44;40.70;;;22.67;;
17985;SDS011;9118;48.122;11.546;2022-12-10T06:56:15;40.57;;;22.37;;
17985;SDS011;9118;48.122;11.546;2022-12-10T06:58:43;37.60;;;21.93;;
17985;SDS011;9118;48.122;11.546;2022-12-10T07:01:12;41.63;;;22.13;;
17985;SDS011;9118;48.122;11.546;2022-12-10T07:03:40;41.27;;;21.63;;
17985;SDS011;9118;48.122;11.546;2022-12-10T07:06:09;43.40;;;21.87;;
17985;SDS011;9118;48.122;11.546;2022-12-10T07:08:39;37.97;;;21.60;;
17985;SDS011;9118;48.122;11.546;2022-12-10T07:11:08;40.40;;;22.10;;
17985;SDS011;9118;48.122;11.546;2022-12-10T07:13:37;37.60;;;20.93;;
17985;SDS011;9118;48.122;11.546;2022-12-10T07:16:11;43.50;;;22.30;;
17985;SDS011;9118;48.122;11.546;2022-12-10T07:18:40;43.80;;;22.13;;
17985;SDS011;9118;48.122;11.546;2022-12-10T07:21:15;37.33;;;20.57;;
17985;SDS011;9118;48.122;11.546;2022-12-10T07:23:51;41.50;;;23.30;;
17985;SDS011;9118;48.122;11.546;2022-12-10T07:26:20;37.70;;;21.27;;
17985;SDS011;9118;48.122;11.546;2022-12-10T07:28:47;36.43;;;20.40;;
17985;SDS011;9118;48.122;11.546;2022-12-10T07:31:15;36.37;;;20.13;;
17985;SDS011;9118;48.122;11.546;2022-12-10T07:33:44;37.23;;;19.47;;
17985;SDS011;9118;48.122;11.546;2022-12-10T07:36:11;40.73;;;21.23;;
17985;SDS011;9118;48.122;11.546;2022-12-10T07:38:39;39.17;;;20.30;;
17985;SDS011;9118;48.122;11.546;2022-12-10T07:41:10;41.73;;;23.67;;
17985;SDS011;9118;48.122;11.546;2022-12-10T07:43:39;33.23;;;18.90;;
17985;SDS011;9118;48.122;11.546;2022-12-10T07:46:10;31.13;;;18.17;;
17985;SDS011;9118;48.122;11.546;2022-12-10T07:48:42;31.17;;;18.60;;
17985;SDS011;9118;48.122;11.546;2022-12-10T07:51:11;28.87;;;16.70;;
17985;SDS011;9118;48.122;11.546;2022-12-10T07:53:39;31.07;;;16.03;;
17985;SDS011;9118;48.122;11.546;2022-12-10T07:56:10;41.30;;;24.20;;
17985;SDS011;9118;48.122;11.546;2022-12-10T07:58:40;33.40;;;18.07;;
17985;SDS011;9118;48.122;11.546;2022-12-10T08:01:09;47.57;;;26.77;;
17985;SDS011;9118;48.122;11.546;2022-12-10T08:03:38;36.87;;;20.70;;
17985;SDS011;9118;48.122;11.546;2022-12-10T08:06:06;33.30;;;19.07;;
17985;SDS011;9118;48.122;11.546;2022-12-10T08:08:36;30.33;;;18.13;;
17985;SDS011;9118;48.122;11.546;2022-12-10T08:11:06;32.07;;;17.93;;
17985;SDS011;9118;48.122;11.546;2022-12-10T08:13:37;29.87;;;16.77;;
17985;SDS011;9118;48.122;11.546;2022-12-10T08:16:08;28.03;;;16.83;;
17985;SDS011;9118;48.122;11.546;2022-12-10T08:18:37;35.67;;;19.87;;
17985;SDS011;9118;48.122;11.546;2022-12-10T08:21:06;30.20;;;17.17;;
17985;SDS011;9118;48.122;11.546;2022-12-10T08:23:34;28.03;;;16.73;;
17985;SDS011;9118;48.122;11.546;2022-12-10T08:26:04;28.40;;;16.67;;
17985;SDS011;9118;48.122;11.546;2022-12-10T08:28:33;26.20;;;15.83;;
17985;SDS011;9118;48.122;11.546;2022-12-10T08:31:03;26.63;;;15.30;;
17985;SDS011;9118;48.122;11.546;2022-12-10T08:33:32;27.50;;;15.80;;
17985;SDS011;9118;48.122;11.546;2022-12-10T08:36:01;24.83;;;15.30;;
17985;SDS011;9118;48.122;11.546;2022-12-10T08:38:32;27.77;;;15.77;;
17985;SDS011;9118;48.122;11.546;2022-12-10T08:41:05;29.73;;;16.90;;
17985;SDS011;9118;48.122;11.546;2022-12-10T08:43:33;28.27;;;15.57;;
17985;SDS011;9118;48.122;11.546;2022-12-10T08:46:01;29.87;;;17.53;;
17985;SDS011;9118;48.122;11.546;2022-12-10T08:48:33;27.00;;;16.03;;
17985;SDS011;9118;48.122;11.546;2022-12-10T08:51:02;32.97;;;18.33;;
17985;SDS011;9118;48.122;11.546;2022-12-10T08:53:30;31.10;;;17.93;;
17985;SDS011;9118;48.122;11.546;2022-12-10T08:55:58;32.80;;;18.10;;
17985;SDS011;9118;48.122;11.546;2022-12-10T08:58:26;37.37;;;21.43;;
17985;SDS011;9118;48.122;11.546;2022-12-10T09:00:55;33.63;;;18.40;;
17985;SDS011;9118;48.122;11.546;2022-12-10T09:03:23;32.50;;;18.30;;
17985;SDS011;9118;48.122;11.546;2022-12-10T09:05:50;30.27;;;17.47;;
17985;SDS011;9118;48.122;11.546;2022-12-10T09:08:26;33.13;;;18.27;;
17985;SDS011;9118;48.122;11.546;2022-12-10T09:10:53;31.30;;;18.37;;
17985;SDS011;9118;48.122;11.546;2022-12-10T09:13:20;31.47;;;18.03;;
17985;SDS011;9118;48.122;11.546;2022-12-10T09:15:54;30.67;;;17.30;;
17985;SDS011;9118;48.122;11.546;2022-12-10T09:18:23;32.50;;;17.70;;
17985;SDS011;9118;48.122;11.546;2022-12-10T09:20:51;32.50;;;17.23;;
17985;SDS011;9118;48.122;11.546;2022-12-10T09:23:19;30.30;;;17.23;;
17985;SDS011;9118;48.122;11.546;2022-12-10T09:25:48;32.30;;;17.23;;
17985;SDS011;9118;48.122;11.546;2022-12-10T09:28:15;31.90;;;16.47;;
17985;SDS011;9118;48.122;11.546;2022-12-10T09:30:42;34.60;;;18.57;;
17985;SDS011;9118;48.122;11.546;2022-12-10T09:33:10;33.93;;;17.93;;
17985;SDS011;9118;48.122;11.546;2022-12-10T09:35:41;33.17;;;18.57;;
17985;SDS011;9118;48.122;11.546;2022-12-10T09:38:10;35.30;;;18.43;;
17985;SDS011;9118;48.122;11.546;2022-12-10T09:40:39;31.70;;;17.97;;
17985;SDS011;9118;48.122;11.546;2022-12-10T09:43:12;34.50;;;19.43;;
17985;SDS011;9118;48.122;11.546;2022-12-10T09:45:50;34.70;;;18.33;;
17985;SDS011;9118;48.122;11.546;2022-12-10T09:48:26;33.70;;;19.77;;
17985;SDS011;9118;48.122;11.546;2022-12-10T09:51:01;36.70;;;18.90;;
17985;SDS011;9118;48.122;11.546;2022-12-10T09:53:33;35.57;;;19.43;;
17985;SDS011;9118;48.122;11.546;2022-12-10T09:56:05;37.43;;;22.03;;
17985;SDS011;9118;48.122;11.546;2022-12-10T09:58:38;38.27;;;20.47;;
17985;SDS011;9118;48.122;11.546;2022-12-10T10:01:05;36.73;;;20.40;;
17985;SDS011;9118;48.122;11.546;2022-12-10T10:03:38;38.27;;;20.07;;
17985;SDS011;9118;48.122;11.546;2022-12-10T10:06:11;36.40;;;18.70;;
17985;SDS011;9118;48.122;11.546;2022-12-10T10:08:40;41.53;;;21.80;;
17985;SDS011;9118;48.122;11.546;2022-12-10T10:11:12;37.33;;;19.63;;
17985;SDS011;9118;48.122;11.546;2022-12-10T10:13:47;37.30;;;21.37;;
17985;SDS011;9118;48.122;11.546;2022-12-10T10:16:20;36.93;;;19.97;;
17985;SDS011;9118;48.122;11.546;2022-12-10T10:18:54;37.50;;;19.83;;
17985;SDS011;9118;48.122;11.546;2022-12-10T10:21:27;41.40;;;20.10;;
17985;SDS011;9118;48.122;11.546;2022-12-10T10:24:00;41.00;;;20.50;;
17985;SDS011;9118;48.122;11.546;2022-12-10T10:26:43;39.03;;;19.87;;
17985;SDS011;9118;48.122;11.546;2022-12-10T10:29:12;42.40;;;20.47;;
17985;SDS011;9118;48.122;11.546;2022-12-10T10:31:43;42.70;;;19.67;;
17985;SDS011;9118;48.122;11.546;2022-12-10T10:34:13;40.60;;;20.93;;
17985;SDS011;9118;48.122;11.546;2022-12-10T10:36:48;40.17;;;20.87;;
17985;SDS011;9118;48.122;11.546;2022-12-10T10:39:26;38.97;;;20.27;;
17985;SDS011;9118;48.122;11.546;2022-12-10T10:41:56;38.13;;;19.60;;
17985;SDS011;9118;48.122;11.546;2022-12-10T10:44:25;37.83;;;19.33;;
17985;SDS011;9118;48.122;11.546;2022-12-10T10:46:55;39.70;;;19.40;;
17985;SDS011;9118;48.122;11.546;2022-12-10T10:49:23;36.90;;;18.70;;
17985;SDS011;9118;48.122;11.546;2022-12-10T10:51:53;35.50;;;19.07;;
17985;SDS011;9118;48.122;11.546;2022-12-10T10:54:39;36.27;;;19.33;;
17985;SDS011;9118;48.122;11.546;2022-12-10T10:57:11;35.80;;;18.43;;
17985;SDS011;9118;48.122;11.546;2022-12-10T10:59:42;33.80;;;17.17;;
17985;SDS011;9118;48.122;11.546;2022-12-10T11:02:20;37.27;;;18.03;;
17985;SDS011;9118;48.122;11.546;2022-12-10T11:04:50;41.17;;;18.93;;
17985;SDS011;9118;48.122;11.546;2022-12-10T11:07:22;34.73;;;18.47;;
17985;SDS011;9118;48.122;11.546;2022-12-10T11:09:52;37.50;;;18.80;;
17985;SDS011;9118;48.122;11.546;2022-12-10T11:12:35;34.40;;;18.90;;
17985;SDS011;9118;48.122;11.546;2022-12-10T11:15:27;35.33;;;18.87;;
17985;SDS011;9118;48.122;11.546;2022-12-10T11:17:57;38.47;;;19.13;;
17985;SDS011;9118;48.122;11.546;2022-12-10T11:20:26;36.73;;;19.37;;
17985;SDS011;9118;48.122;11.546;2022-12-10T11:22:58;37.03;;;19.10;;
17985;SDS011;9118;48.122;11.546;2022-12-10T11:25:32;39.40;;;20.60;;
17985;SDS011;9118;48.122;11.546;2022-12-10T11:28:10;36.97;;;19.87;;
17985;SDS011;9118;48.122;11.546;2022-12-10T11:30:49;35.17;;;19.77;;
17985;SDS011;9118;48.122;11.546;2022-12-10T11:33:24;37.50;;;19.57;;
17985;SDS011;9118;48.122;11.546;2022-12-10T11:36:02;38.50;;;20.47;;
17985;SDS011;9118;48.122;11.546;2022-12-10T11:38:45;40.97;;;22.90;;
17985;SDS011;9118;48.122;11.546;2022-12-10T11:41:19;43.03;;;23.07;;
17985;SDS011;9118;48.122;11.546;2022-12-10T11:44:07;45.90;;;24.30;;
17985;SDS011;9118;48.122;11.546;2022-12-10T11:46:54;48.73;;;26.17;;
17985;SDS011;9118;48.122;11.546;2022-12-10T11:49:35;45.23;;;23.73;;
17985;SDS011;9118;48.122;11.546;2022-12-10T11:52:13;42.67;;;22.63;;
17985;SDS011;9118;48.122;11.546;2022-12-10T11:54:56;42.20;;;21.53;;
17985;SDS011;9118;48.122;11.546;2022-12-10T11:57:34;37.60;;;20.57;;
17985;SDS011;9118;48.122;11.546;2022-12-10T12:00:14;35.77;;;19.90;;
17985;SDS011;9118;48.122;11.546;2022-12-10T12:02:51;35.80;;;19.70;;
17985;SDS011;9118;48.122;11.546;2022-12-10T12:05:42;33.17;;;18.67;;
17985;SDS011;9118;48.122;11.546;2022-12-10T12:08:20;35.87;;;18.90;;
17985;SDS011;9118;48.122;11.546;2022-12-10T12:11:05;36.43;;;19.93;;
17985;SDS011;9118;48.122;11.546;2022-12-10T12:13:45;36.27;;;18.77;;
17985;SDS011;9118;48.122;11.546;2022-12-10T12:16:22;36.93;;;19.37;;
17985;SDS011;9118;48.122;11.546;2022-12-10T12:18:57;38.70;;;19.77;;
17985;SDS011;9118;48.122;11.546;2022-12-10T12:21:28;37.43;;;19.13;;
17985;SDS011;9118;48.122;11.546;2022-12-10T12:23:59;37.03;;;18.70;;
17985;SDS011;9118;48.122;11.546;2022-12-10T12:26:32;42.10;;;20.07;;
17985;SDS011;9118;48.122;11.546;2022-12-10T12:29:08;43.07;;;21.67;;
17985;SDS011;9118;48.122;11.546;2022-12-10T12:31:43;38.73;;;20.17;;
17985;SDS011;9118;48.122;11.546;2022-12-10T12:34:17;40.77;;;20.80;;
17985;SDS011;9118;48.122;11.546;2022-12-10T12:36:47;40.07;;;20.80;;
17985;SDS011;9118;48.122;11.546;2022-12-10T12:39:17;39.87;;;21.57;;
17985;SDS011;9118;48.122;11.546;2022-12-10T12:41:55;37.13;;;20.17;;
17985;SDS011;9118;48.122;11.546;2022-12-10T12:44:28;42.53;;;20.20;;
17985;SDS011;9118;48.122;11.546;2022-12-10T12:47:02;36.63;;;19.33;;
17985;SDS011;9118;48.122;11.546;2022-12-10T12:49:43;42.60;;;22.90;;
17985;SDS011;9118;48.122;11.546;2022-12-10T12:52:15;48.40;;;24.60;;
17985;SDS011;9118;48.122;11.546;2022-12-10T12:54:51;42.80;;;24.10;;
17985;SDS011;9118;48.122;11.546;2022-12-10T12:57:28;45.53;;;23.83;;
17985;SDS011;9118;48.122;11.546;2022-12-10T13:00:05;40.80;;;21.60;;
17985;SDS011;9118;48.122;11.546;2022-12-10T13:02:43;39.50;;;20.47;;
17985;SDS011;9118;48.122;11.546;2022-12-10T13:05:15;36.43;;;19.67;;
17985;SDS011;9118;48.122;11.546;2022-12-10T13:10:50;37.57;;;19.13;;
17985;SDS011;9118;48.122;11.546;2022-12-10T13:13:28;40.47;;;20.90;;
17985;SDS011;9118;48.122;11.546;2022-12-10T13:22:03;40.00;;;21.40;;
17985;SDS011;9118;48.122;11.546;2022-12-10T13:27:37;39.77;;;19.70;;
17985;SDS011;9118;48.122;11.546;2022-12-10T13:33:12;41.77;;;20.27;;
17985;SDS011;9118;48.122;11.546;2022-12-10T13:35:48;45.23;;;22.07;;
17985;SDS011;9118;48.122;11.546;2022-12-10T13:38:21;46.60;;;23.03;;
17985;SDS011;9118;48.122;11.546;2022-12-10T13:40:59;50.63;;;23.63;;
17985;SDS011;9118;48.122;11.546;2022-12-10T13:43:55;42.70;;;21.73;;
17985;SDS011;9118;48.122;11.546;2022-12-10T13:46:57;46.13;;;23.03;;
17985;SDS011;9118;48.122;11.546;2022-12-10T13:49:28;46.60;;;23.07;;
17985;SDS011;9118;48.122;11.546;2022-12-10T13:51:59;47.17;;;22.67;;
17985;SDS011;9118;48.122;11.546;2022-12-10T13:54:32;42.73;;;21.53;;
17985;SDS011;9118;48.122;11.546;2022-12-10T14:00:23;46.87;;;23.40;;
17985;SDS011;9118;48.122;11.546;2022-12-10T14:03:17;47.57;;;22.53;;
17985;SDS011;9118;48.122;11.546;2022-12-10T14:06:14;42.27;;;22.43;;
17985;SDS011;9118;48.122;11.546;2022-12-10T14:08:58;43.17;;;21.47;;
17985;SDS011;9118;48.122;11.546;2022-12-10T14:11:28;43.47;;;22.07;;
17985;SDS011;9118;48.122;11.546;2022-12-10T14:14:00;45.03;;;22.20;;
17985;SDS011;9118;48.122;11.546;2022-12-10T14:16:29;44.90;;;23.20;;
17985;SDS011;9118;48.122;11.546;2022-12-10T14:19:03;48.43;;;24.63;;
17985;SDS011;9118;48.122;11.546;2022-12-10T14:21:33;45.30;;;24.40;;
17985;SDS011;9118;48.122;11.546;2022-12-10T14:24:04;44.37;;;20.93;;
17985;SDS011;9118;48.122;11.546;2022-12-10T14:26:33;43.57;;;22.03;;
17985;SDS011;9118;48.122;11.546;2022-12-10T14:29:11;46.73;;;23.20;;
17985;SDS011;9118;48.122;11.546;2022-12-10T14:31:47;45.50;;;23.10;;
17985;SDS011;9118;48.122;11.546;2022-12-10T14:34:18;43.23;;;22.67;;
17985;SDS011;9118;48.122;11.546;2022-12-10T14:36:50;44.63;;;22.53;;
17985;SDS011;9118;48.122;11.546;2022-12-10T14:39:19;47.33;;;24.27;;
17985;SDS011;9118;48.122;11.546;2022-12-10T14:41:51;46.80;;;23.93;;
17985;SDS011;9118;48.122;11.546;2022-12-10T14:44:21;47.00;;;23.47;;
17985;SDS011;9118;48.122;11.546;2022-12-10T14:46:49;48.90;;;24.73;;
17985;SDS011;9118;48.122;11.546;2022-12-10T14:49:20;47.27;;;23.13;;
17985;SDS011;9118;48.122;11.546;2022-12-10T14:51:49;49.53;;;23.77;;
17985;SDS011;9118;48.122;11.546;2022-12-10T14:54:24;46.20;;;23.10;;
17985;SDS011;9118;48.122;11.546;2022-12-10T14:56:56;44.63;;;21.57;;
17985;SDS011;9118;48.122;11.546;2022-12-10T14:59:28;45.20;;;23.73;;
17985;SDS011;9118;48.122;11.546;2022-12-10T15:01:59;47.40;;;23.70;;
17985;SDS011;9118;48.122;11.546;2022-12-10T15:04:40;52.30;;;25.63;;